Terminal Aerodrome Forecast
Issued by NWS

Home | Current Version | Previous Version | Text Only | Print | Product List | Glossary On
Versions: 1 2 3 4 5 6 7 8 9 10 11 12 13 14 15 16 17 18 19 20 21
613
FTUS43 KMQT 250007 AAA
TAFIWD
TAF AMD
KIWD 250007Z 2500/2524 16007KT P6SM BKN050
     FM250400 16009KT P6SM BKN060 WS010/18035KT
     FM251100 17009KT P6SM VCSH OVC060 WS010/18035KT
     FM251300 17010KT P6SM -SHRA OVC025 WS010/18035KT
     FM251500 18010G19KT 6SM -SHRA OVC010
     FM251800 18009G17KT P6SM OVC010
     FM252200 21008KT P6SM OVC030=

USA.gov is the U.S. government's official web portal to all federal, state and local government web resources and services.